createdAt,value
2018-04-11T00:00:26.598Z,11.55
2018-04-11T00:02:52.436Z,11.80
2018-04-11T00:05:18.273Z,11.61
2018-04-11T00:07:44.126Z,11.50
2018-04-11T00:10:09.984Z,11.49
2018-04-11T00:12:35.833Z,11.42
2018-04-11T00:15:01.667Z,11.49
2018-04-11T00:17:27.505Z,11.43
2018-04-11T00:19:53.365Z,11.47
2018-04-11T00:22:19.212Z,11.45
2018-04-11T00:24:45.063Z,11.29
2018-04-11T00:27:10.941Z,11.24
2018-04-11T00:29:36.812Z,11.25
2018-04-11T00:32:02.695Z,11.35
2018-04-11T00:34:28.560Z,11.44
2018-04-11T00:36:54.421Z,11.51
2018-04-11T00:39:20.253Z,11.29
2018-04-11T00:41:46.115Z,11.05
2018-04-11T00:44:11.933Z,11.08
2018-04-11T00:46:37.769Z,11.09
2018-04-11T00:49:03.609Z,11.07
2018-04-11T00:51:29.429Z,10.98
2018-04-11T00:53:55.253Z,11.10
2018-04-11T00:56:21.078Z,10.86
2018-04-11T00:58:46.956Z,10.93
2018-04-11T01:01:12.796Z,10.84
2018-04-11T01:03:38.613Z,10.71
2018-04-11T01:06:04.433Z,10.66
2018-04-11T01:08:30.273Z,10.72
2018-04-11T01:10:56.090Z,10.90
2018-04-11T01:13:21.928Z,10.76
2018-04-11T01:15:47.752Z,10.68
2018-04-11T01:18:13.597Z,10.74
2018-04-11T01:20:39.430Z,10.55
2018-04-11T01:23:05.254Z,10.72
2018-04-11T01:25:31.082Z,10.74
2018-04-11T01:27:56.939Z,10.71
2018-04-11T01:30:22.827Z,10.55
2018-04-11T01:32:48.672Z,10.62
2018-04-11T01:35:14.548Z,10.70
2018-04-11T01:37:40.379Z,10.63
2018-04-11T01:40:06.256Z,10.68
2018-04-11T01:42:32.118Z,10.59
2018-04-11T01:44:57.996Z,10.57
2018-04-11T01:47:23.828Z,10.62
2018-04-11T01:49:49.668Z,10.84
2018-04-11T01:52:15.512Z,10.76
2018-04-11T01:54:41.369Z,10.76
2018-04-11T01:57:07.212Z,10.82
2018-04-11T01:59:33.057Z,10.74
2018-04-11T02:01:58.904Z,10.77
2018-04-11T02:04:24.758Z,10.84
2018-04-11T02:06:50.619Z,11.01
2018-04-11T02:09:16.502Z,10.90
2018-04-11T02:11:42.388Z,11.00
2018-04-11T02:14:08.247Z,11.05
2018-04-11T02:16:34.145Z,10.99
2018-04-11T02:18:59.980Z,10.89
2018-04-11T02:21:25.868Z,11.09
2018-04-11T02:23:51.694Z,10.89
2018-04-11T02:26:17.582Z,10.78
2018-04-11T02:28:43.452Z,10.69
2018-04-11T02:31:09.308Z,10.60
2018-04-11T02:33:35.168Z,10.53
2018-04-11T02:36:01.021Z,10.54
2018-04-11T02:38:26.884Z,10.46
2018-04-11T02:40:52.761Z,10.40
2018-04-11T02:43:18.640Z,10.50
2018-04-11T02:45:44.519Z,10.41
2018-04-11T02:48:10.380Z,10.49
2018-04-11T02:50:36.241Z,10.49
2018-04-11T02:53:02.092Z,10.51
2018-04-11T02:55:27.927Z,10.57
2018-04-11T02:57:53.768Z,10.59
2018-04-11T03:00:19.646Z,10.64
2018-04-11T03:02:45.555Z,10.82
2018-04-11T03:05:11.416Z,10.82
2018-04-11T03:07:37.284Z,10.97
2018-04-11T03:10:03.216Z,11.24
2018-04-11T03:12:29.067Z,11.27
2018-04-11T03:14:54.905Z,11.19
2018-04-11T03:17:20.748Z,11.17
2018-04-11T03:19:46.578Z,11.14
2018-04-11T03:22:12.429Z,11.07
2018-04-11T03:24:38.289Z,11.05
2018-04-11T03:27:04.152Z,10.97
2018-04-11T03:29:30.020Z,10.97
2018-04-11T03:31:55.866Z,10.95
2018-04-11T03:34:21.756Z,10.88
2018-04-11T03:36:47.615Z,10.74
2018-04-11T03:39:13.474Z,10.69
2018-04-11T03:41:39.334Z,10.72
2018-04-11T03:44:05.181Z,10.75
2018-04-11T03:46:31.036Z,10.77
2018-04-11T03:48:56.891Z,10.80
2018-04-11T03:51:22.777Z,10.54
2018-04-11T03:53:48.611Z,10.72
2018-04-11T03:56:14.459Z,10.78
2018-04-11T03:58:40.295Z,10.78
2018-04-11T04:01:06.149Z,10.75
2018-04-11T04:03:32.013Z,10.72
2018-04-11T04:05:57.860Z,10.71
2018-04-11T04:08:23.722Z,10.70
2018-04-11T04:10:49.597Z,10.67
2018-04-11T04:13:15.513Z,10.67
2018-04-11T04:15:53.689Z,10.68
2018-04-11T04:18:31.888Z,10.61
2018-04-11T04:20:57.705Z,10.68
2018-04-11T04:23:23.567Z,10.82
2018-04-11T04:25:49.453Z,10.56
2018-04-11T04:28:15.312Z,10.72
2018-04-11T04:30:41.177Z,10.55
2018-04-11T04:33:07.076Z,10.58
2018-04-11T04:35:32.968Z,10.43
2018-04-11T04:37:58.809Z,10.34
2018-04-11T04:40:24.633Z,10.18
2018-04-11T04:42:50.478Z,10.31
2018-04-11T04:45:16.418Z,10.24
2018-04-11T04:47:42.241Z,10.12
2018-04-11T04:50:08.070Z,10.25
2018-04-11T04:52:33.924Z,10.51
2018-04-11T04:54:59.805Z,10.39
2018-04-11T04:57:25.713Z,10.40
2018-04-11T04:59:51.564Z,10.41
2018-04-11T05:02:17.608Z,10.26
2018-04-11T05:04:43.506Z,10.25
2018-04-11T05:07:09.364Z,10.32
2018-04-11T05:09:35.227Z,10.40
2018-04-11T05:12:01.085Z,10.49
2018-04-11T05:14:26.943Z,10.56
2018-04-11T05:16:52.780Z,10.66
2018-04-11T05:19:18.636Z,10.73
2018-04-11T05:21:44.488Z,10.88
2018-04-11T05:24:10.345Z,10.89
2018-04-11T05:26:36.168Z,10.86
2018-04-11T05:29:02.041Z,10.95
2018-04-11T05:31:27.871Z,11.12
2018-04-11T05:33:53.744Z,11.05
2018-04-11T05:36:19.616Z,11.06
2018-04-11T05:38:45.708Z,10.72
2018-04-11T05:41:11.553Z,10.54
2018-04-11T05:43:37.459Z,10.52
2018-04-11T05:46:03.369Z,10.74
2018-04-11T05:48:29.208Z,10.81
2018-04-11T05:50:55.032Z,10.89
2018-04-11T05:53:20.851Z,10.92
2018-04-11T05:55:46.721Z,10.90
2018-04-11T05:58:12.585Z,10.51
2018-04-11T06:00:38.482Z,10.67
2018-04-11T06:03:04.332Z,10.82
2018-04-11T06:05:30.193Z,10.83
2018-04-11T06:07:56.105Z,10.62
2018-04-11T06:10:21.996Z,10.85
2018-04-11T06:12:47.860Z,10.98
2018-04-11T06:15:13.701Z,11.20
2018-04-11T06:17:39.552Z,11.24
2018-04-11T06:20:05.403Z,11.13
2018-04-11T06:22:31.242Z,11.04
2018-04-11T06:24:57.095Z,11.03
2018-04-11T06:27:22.933Z,10.90
2018-04-11T06:29:48.812Z,10.91
2018-04-11T06:32:14.672Z,10.87
2018-04-11T06:34:40.528Z,10.87
2018-04-11T06:37:06.401Z,10.91
2018-04-11T06:39:32.253Z,10.97
2018-04-11T06:41:58.196Z,11.04
2018-04-11T06:44:24.038Z,10.99
2018-04-11T06:46:49.906Z,11.02
2018-04-11T06:49:15.786Z,11.03
2018-04-11T06:51:41.660Z,10.94
2018-04-11T06:54:07.545Z,10.98
2018-04-11T06:56:33.428Z,10.94
2018-04-11T06:58:59.260Z,11.07
2018-04-11T07:01:25.116Z,11.22
2018-04-11T07:03:51.005Z,11.31
2018-04-11T07:06:16.849Z,11.49
2018-04-11T07:08:42.689Z,11.67
2018-04-11T07:11:08.491Z,11.76
2018-04-11T07:13:34.341Z,11.98
2018-04-11T07:16:00.157Z,11.78
2018-04-11T07:18:26.000Z,11.77
2018-04-11T07:20:51.844Z,11.64
2018-04-11T07:23:17.678Z,11.68
2018-04-11T07:25:43.518Z,11.59
2018-04-11T07:28:09.414Z,11.70
2018-04-11T07:30:35.268Z,11.58
2018-04-11T07:33:01.132Z,11.73
2018-04-11T07:35:26.978Z,11.54
2018-04-11T07:37:52.832Z,11.64
2018-04-11T07:40:18.715Z,11.82
2018-04-11T07:42:44.540Z,11.74
2018-04-11T07:45:10.411Z,11.99
2018-04-11T07:47:36.225Z,12.14
2018-04-11T07:50:02.075Z,12.27
2018-04-11T07:52:27.947Z,12.47
2018-04-11T07:54:53.801Z,12.68
2018-04-11T07:57:19.617Z,12.59
2018-04-11T07:59:45.465Z,12.48
2018-04-11T08:02:11.313Z,12.60
2018-04-11T08:04:37.174Z,12.67
2018-04-11T08:07:03.005Z,12.35
2018-04-11T08:09:28.880Z,12.41
2018-04-11T08:11:54.718Z,12.24
2018-04-11T08:14:20.635Z,12.27
2018-04-11T08:16:46.500Z,12.35
2018-04-11T08:19:12.350Z,12.32
2018-04-11T08:21:38.217Z,12.06
2018-04-11T08:24:04.008Z,12.10
2018-04-11T08:26:29.876Z,12.33
2018-04-11T08:28:55.740Z,12.54
2018-04-11T08:31:21.612Z,12.40
2018-04-11T08:33:47.485Z,12.30
2018-04-11T08:36:13.381Z,12.48
2018-04-11T08:38:39.236Z,12.41
2018-04-11T08:41:05.132Z,12.47
2018-04-11T08:43:30.981Z,12.61
2018-04-11T08:45:56.868Z,12.64
2018-04-11T08:48:22.711Z,12.66
2018-04-11T08:50:48.568Z,12.48
2018-04-11T08:53:14.432Z,12.64
2018-04-11T08:55:40.284Z,12.30
2018-04-11T08:58:06.177Z,12.39
2018-04-11T09:00:32.028Z,12.42
2018-04-11T09:02:57.869Z,12.44
2018-04-11T09:05:23.820Z,12.42
2018-04-11T09:07:49.590Z,12.44
2018-04-11T09:10:15.401Z,12.56
2018-04-11T09:12:41.279Z,12.54
2018-04-11T09:15:07.139Z,12.73
2018-04-11T09:17:32.978Z,12.71
2018-04-11T09:19:58.844Z,12.71
2018-04-11T09:22:24.670Z,12.93
2018-04-11T09:24:50.523Z,13.14
2018-04-11T09:27:16.362Z,13.20
2018-04-11T09:29:42.207Z,13.30
2018-04-11T09:32:08.056Z,13.10
2018-04-11T09:34:33.923Z,13.28
2018-04-11T09:36:59.788Z,13.03
2018-04-11T09:39:25.649Z,12.97
2018-04-11T09:41:51.567Z,13.17
2018-04-11T09:44:17.374Z,13.20
2018-04-11T09:46:43.232Z,13.40
2018-04-11T09:49:09.086Z,13.62
2018-04-11T09:51:34.941Z,13.75
2018-04-11T09:54:00.786Z,14.01
2018-04-11T09:56:26.643Z,13.42
2018-04-11T09:58:52.501Z,13.47
2018-04-11T10:01:18.373Z,13.59
2018-04-11T10:03:45.078Z,13.66
2018-04-11T10:06:10.989Z,13.89
2018-04-11T10:08:36.830Z,13.94
2018-04-11T10:11:02.705Z,14.38
2018-04-11T10:13:28.568Z,14.69
2018-04-11T10:15:54.424Z,14.83
2018-04-11T10:18:20.294Z,14.69
2018-04-11T10:20:46.154Z,14.87
2018-04-11T10:23:12.025Z,15.53
2018-04-11T10:25:37.890Z,15.15
2018-04-11T10:28:03.770Z,15.37
2018-04-11T10:30:29.640Z,15.32
2018-04-11T10:32:55.488Z,15.41
2018-04-11T10:35:21.352Z,14.96
2018-04-11T10:37:47.231Z,15.32
2018-04-11T10:40:13.109Z,15.64
2018-04-11T10:42:38.932Z,15.75
2018-04-11T10:45:04.822Z,15.67
2018-04-11T10:47:30.705Z,15.52
2018-04-11T10:49:56.571Z,15.85
2018-04-11T10:52:22.436Z,15.90
2018-04-11T10:54:48.323Z,15.86
2018-04-11T10:57:14.174Z,15.56
2018-04-11T10:59:40.048Z,15.69
2018-04-11T11:02:05.930Z,15.72
2018-04-11T11:04:31.804Z,15.96
2018-04-11T11:06:57.658Z,16.17
2018-04-11T11:09:23.508Z,16.38
2018-04-11T11:11:49.355Z,16.66
2018-04-11T11:14:15.258Z,16.96
2018-04-11T11:16:41.080Z,17.08
2018-04-11T11:19:06.948Z,17.06
2018-04-11T11:21:32.777Z,16.13
2018-04-11T11:23:58.667Z,16.66
2018-04-11T11:26:24.561Z,17.05
2018-04-11T11:28:50.517Z,16.47
2018-04-11T11:31:16.425Z,16.72
2018-04-11T11:33:42.287Z,16.91
2018-04-11T11:36:08.151Z,17.71
2018-04-11T11:38:34.005Z,17.03
2018-04-11T11:40:59.878Z,17.16
2018-04-11T11:43:25.707Z,17.22
2018-04-11T11:45:51.603Z,16.97
2018-04-11T11:48:17.429Z,17.43
2018-04-11T11:50:43.263Z,17.11
2018-04-11T11:53:09.123Z,16.84
2018-04-11T11:55:34.957Z,17.09
2018-04-11T11:58:00.824Z,17.00
2018-04-11T12:00:26.676Z,17.28
2018-04-11T12:02:52.536Z,17.80
2018-04-11T12:05:18.386Z,17.24
2018-04-11T12:07:44.217Z,16.88
2018-04-11T12:10:10.076Z,16.69
2018-04-11T12:12:35.920Z,16.68
2018-04-11T12:15:01.769Z,16.91
2018-04-11T12:17:27.627Z,16.97
2018-04-11T12:19:53.460Z,16.83
2018-04-11T12:22:19.344Z,16.91
2018-04-11T12:24:45.185Z,17.03
2018-04-11T12:27:11.032Z,17.79
2018-04-11T12:29:36.959Z,18.24
2018-04-11T12:32:02.792Z,18.47
2018-04-11T12:34:28.649Z,19.23
2018-04-11T12:36:54.500Z,18.77
2018-04-11T12:39:20.347Z,18.05
2018-04-11T12:41:46.203Z,18.21
2018-04-11T12:44:12.067Z,18.21
2018-04-11T12:46:37.905Z,18.73
2018-04-11T12:49:03.792Z,19.22
2018-04-11T12:51:29.676Z,19.47
2018-04-11T12:53:55.569Z,19.23
2018-04-11T12:56:21.460Z,19.43
2018-04-11T12:58:47.317Z,19.28
2018-04-11T13:01:13.193Z,19.20
2018-04-11T13:03:39.012Z,19.27
2018-04-11T13:06:04.871Z,20.13
2018-04-11T13:08:30.729Z,19.55
2018-04-11T13:10:56.581Z,19.48
2018-04-11T13:13:22.425Z,19.96
2018-04-11T13:15:48.293Z,19.52
2018-04-11T13:18:14.175Z,20.25
2018-04-11T13:20:40.032Z,20.73
2018-04-11T13:23:05.891Z,21.22
2018-04-11T13:25:31.777Z,21.36
2018-04-11T13:27:57.657Z,21.96
2018-04-11T13:30:23.506Z,21.70
2018-04-11T13:32:49.387Z,22.26
2018-04-11T13:35:15.232Z,21.37
2018-04-11T13:37:41.125Z,22.07
2018-04-11T13:40:06.989Z,22.01
2018-04-11T13:42:32.863Z,21.97
2018-04-11T13:44:58.741Z,21.68
2018-04-11T13:47:24.672Z,21.94
2018-04-11T13:49:50.524Z,22.22
2018-04-11T13:52:16.394Z,22.03
2018-04-11T13:54:42.272Z,21.39
2018-04-11T13:57:08.120Z,22.41
2018-04-11T13:59:34.283Z,22.16
2018-04-11T14:02:00.218Z,21.01
2018-04-11T14:04:26.143Z,20.59
2018-04-11T14:06:52.021Z,20.67
2018-04-11T14:09:17.929Z,21.60
2018-04-11T14:11:43.800Z,22.05
2018-04-11T14:14:09.676Z,22.21
2018-04-11T14:16:35.561Z,21.76
2018-04-11T14:19:01.426Z,20.28
2018-04-11T14:21:27.301Z,20.26
2018-04-11T14:23:53.193Z,19.93
2018-04-11T14:26:19.082Z,18.95
2018-04-11T14:28:44.928Z,19.09
2018-04-11T14:31:10.843Z,18.61
2018-04-11T14:33:36.701Z,18.57
2018-04-11T14:36:02.602Z,19.00
2018-04-11T14:38:28.476Z,18.24
2018-04-11T14:40:54.434Z,19.18
2018-04-11T14:43:20.261Z,18.80
2018-04-11T14:45:46.155Z,19.72
2018-04-11T14:48:12.082Z,20.05
2018-04-11T14:50:38.741Z,20.88
2018-04-11T14:53:04.625Z,20.45
2018-04-11T14:55:30.536Z,20.70
2018-04-11T14:57:56.392Z,20.61
2018-04-11T15:00:22.270Z,21.39
2018-04-11T15:02:48.352Z,21.91
2018-04-11T15:05:14.243Z,22.07
2018-04-11T15:07:40.153Z,22.44
2018-04-11T15:10:06.018Z,21.92
2018-04-11T15:12:31.890Z,20.13
2018-04-11T15:14:57.743Z,19.70
2018-04-11T15:17:23.632Z,19.19
2018-04-11T15:19:49.552Z,19.43
2018-04-11T15:22:15.441Z,18.69
2018-04-11T15:24:41.321Z,18.14
2018-04-11T15:27:07.831Z,17.96
2018-04-11T15:29:33.743Z,17.97
2018-04-11T15:32:01.201Z,18.45
2018-04-11T15:34:27.164Z,18.50
2018-04-11T15:36:52.998Z,19.00
2018-04-11T15:39:18.901Z,18.43
2018-04-11T15:41:44.806Z,18.45
2018-04-11T15:44:10.676Z,18.00
2018-04-11T15:46:37.555Z,17.87
2018-04-11T15:49:04.331Z,17.94
2018-04-11T15:51:30.229Z,17.88
2018-04-11T15:53:56.747Z,17.41
2018-04-11T15:56:22.602Z,17.31
2018-04-11T15:58:48.527Z,17.83
2018-04-11T16:01:14.418Z,18.40
2018-04-11T16:03:40.329Z,18.82
2018-04-11T16:06:06.201Z,18.99
2018-04-11T16:08:32.139Z,18.72
2018-04-11T16:10:59.053Z,18.96
2018-04-11T16:13:27.681Z,18.19
2018-04-11T16:15:56.919Z,18.36
2018-04-11T16:18:22.854Z,17.90
2018-04-11T16:20:48.733Z,17.51
2018-04-11T16:23:14.631Z,17.45
2018-04-11T16:25:40.528Z,17.51
2018-04-11T16:28:06.452Z,17.49
2018-04-11T16:30:32.355Z,17.48
2018-04-11T16:32:58.273Z,17.42
2018-04-11T16:35:24.601Z,17.29
2018-04-11T16:37:50.560Z,17.41
2018-04-11T16:40:16.460Z,17.43
2018-04-11T16:42:42.358Z,17.53
2018-04-11T16:45:08.408Z,17.47
2018-04-11T16:47:34.343Z,17.33
2018-04-11T16:50:00.196Z,17.34
2018-04-11T16:52:26.093Z,17.45
2018-04-11T16:54:51.952Z,17.49
2018-04-11T16:57:17.818Z,17.47
2018-04-11T16:59:43.784Z,17.33
2018-04-11T17:02:09.681Z,17.29
2018-04-11T17:04:35.597Z,17.32
2018-04-11T17:07:01.518Z,17.33
2018-04-11T17:09:27.443Z,17.34
2018-04-11T17:11:53.318Z,17.31
2018-04-11T17:14:19.305Z,17.33
2018-04-11T17:16:45.180Z,17.28
2018-04-11T17:19:11.107Z,17.21
2018-04-11T17:21:49.222Z,17.25
2018-04-11T17:24:27.317Z,17.24
2018-04-11T17:27:05.565Z,17.22
2018-04-11T17:29:43.837Z,17.27
2018-04-11T17:32:09.755Z,17.17
2018-04-11T17:34:35.660Z,17.04
2018-04-11T17:37:01.556Z,17.06
2018-04-11T17:39:27.449Z,16.87
2018-04-11T17:41:53.365Z,16.74
2018-04-11T17:44:19.289Z,16.64
2018-04-11T17:46:45.202Z,16.60
2018-04-11T17:49:11.092Z,16.51
2018-04-11T17:51:37.007Z,16.50
2018-04-11T17:54:02.936Z,16.46
2018-04-11T17:56:28.855Z,16.50
2018-04-11T17:58:54.717Z,16.35
2018-04-11T18:01:20.592Z,16.26
2018-04-11T18:03:46.478Z,16.30
2018-04-11T18:06:12.452Z,16.17
2018-04-11T18:08:39.336Z,16.09
2018-04-11T18:11:05.236Z,16.00
2018-04-11T18:13:31.178Z,15.85
2018-04-11T18:15:57.082Z,15.85
2018-04-11T18:18:23.001Z,15.77
2018-04-11T18:20:48.827Z,15.82
2018-04-11T18:23:14.703Z,15.76
2018-04-11T18:25:40.605Z,15.72
2018-04-11T18:28:06.526Z,15.76
2018-04-11T18:30:32.894Z,15.82
2018-04-11T18:32:59.060Z,15.86
2018-04-11T18:35:24.986Z,15.76
2018-04-11T18:37:50.865Z,15.78
2018-04-11T18:40:16.861Z,15.68
2018-04-11T18:42:42.872Z,15.56
2018-04-11T18:45:08.790Z,15.44
2018-04-11T18:47:34.709Z,15.21
2018-04-11T18:50:00.598Z,14.97
2018-04-11T18:52:26.488Z,14.75
2018-04-11T18:54:52.408Z,14.79
2018-04-11T18:57:18.392Z,14.77
2018-04-11T18:59:44.269Z,14.76
2018-04-11T19:02:10.187Z,14.80
2018-04-11T19:04:36.065Z,14.69
2018-04-11T19:07:01.983Z,14.60
2018-04-11T19:09:27.872Z,14.52
2018-04-11T19:11:53.741Z,14.30
2018-04-11T19:14:19.626Z,14.32
2018-04-11T19:16:45.517Z,14.24
2018-04-11T19:19:12.382Z,14.04
2018-04-11T19:21:38.327Z,13.79
2018-04-11T19:24:05.004Z,13.89
2018-04-11T19:26:30.921Z,13.88
2018-04-11T19:28:56.862Z,14.01
2018-04-11T19:31:22.742Z,13.79
2018-04-11T19:33:48.626Z,13.89
2018-04-11T19:39:15.784Z,13.92
2018-04-11T19:41:41.657Z,13.60
2018-04-11T19:44:07.566Z,13.72
2018-04-11T19:46:33.535Z,13.79
2018-04-11T19:48:59.536Z,13.73
2018-04-11T19:51:25.465Z,13.85
2018-04-11T19:53:51.357Z,13.71
2018-04-11T19:56:17.496Z,13.68
2018-04-11T19:58:43.454Z,13.53
2018-04-11T20:01:09.339Z,13.39
2018-04-11T20:03:36.329Z,13.45
2018-04-11T20:06:02.254Z,13.43
2018-04-11T20:08:28.161Z,13.42
2018-04-11T20:10:54.056Z,13.29
2018-04-11T20:13:20.012Z,13.10
2018-04-11T20:15:45.923Z,13.06
2018-04-11T20:18:11.861Z,13.06
2018-04-11T20:20:37.767Z,13.10
2018-04-11T20:23:03.690Z,13.15
2018-04-11T20:25:29.582Z,13.09
2018-04-11T20:27:55.494Z,13.01
2018-04-11T20:30:21.405Z,12.88
2018-04-11T20:32:47.278Z,12.72
2018-04-11T20:35:13.151Z,12.68
2018-04-11T20:37:39.085Z,12.78
2018-04-11T20:40:04.961Z,12.79
2018-04-11T20:42:30.825Z,12.80
2018-04-11T20:44:56.721Z,12.41
2018-04-11T20:47:22.588Z,12.62
2018-04-11T20:49:48.448Z,12.66
2018-04-11T20:52:14.365Z,12.57
2018-04-11T20:54:40.249Z,12.43
2018-04-11T20:57:06.142Z,12.35
2018-04-11T20:59:31.982Z,12.37
2018-04-11T21:01:57.810Z,12.42
2018-04-11T21:04:23.666Z,12.12
2018-04-11T21:06:49.545Z,12.12
2018-04-11T21:09:15.405Z,11.94
2018-04-11T21:11:41.284Z,11.97
2018-04-11T21:14:07.122Z,12.09
2018-04-11T21:16:33.001Z,12.15
2018-04-11T21:18:58.876Z,12.12
2018-04-11T21:21:24.748Z,11.86
2018-04-11T21:23:50.598Z,11.78
2018-04-11T21:26:16.456Z,11.73
2018-04-11T21:28:42.312Z,11.75
2018-04-11T21:31:08.168Z,11.75
2018-04-11T21:33:34.074Z,11.61
2018-04-11T21:35:59.972Z,11.64
2018-04-11T21:38:25.836Z,11.46
2018-04-11T21:40:51.676Z,11.63
2018-04-11T21:43:17.532Z,11.36
2018-04-11T21:45:43.401Z,11.22
2018-04-11T21:48:09.241Z,11.27
2018-04-11T21:50:35.117Z,11.22
2018-04-11T21:53:00.975Z,11.01
2018-04-11T21:55:26.864Z,10.84
2018-04-11T21:57:52.721Z,11.04
2018-04-11T22:00:18.598Z,11.05
2018-04-11T22:02:44.465Z,11.07
2018-04-11T22:05:10.344Z,11.10
2018-04-11T22:07:36.224Z,11.08
2018-04-11T22:10:02.086Z,10.93
2018-04-11T22:12:27.959Z,11.00
2018-04-11T22:14:53.817Z,10.81
2018-04-11T22:17:19.692Z,10.93
2018-04-11T22:19:45.541Z,10.87
2018-04-11T22:22:11.429Z,10.69
2018-04-11T22:24:37.286Z,10.81
2018-04-11T22:27:03.220Z,10.82
2018-04-11T22:29:29.153Z,10.84
2018-04-11T22:31:55.026Z,10.69
2018-04-11T22:34:20.937Z,10.71
2018-04-11T22:36:46.812Z,10.73
2018-04-11T22:39:12.640Z,10.77
2018-04-11T22:41:38.472Z,10.91
2018-04-11T22:44:04.348Z,11.07
2018-04-11T22:46:30.217Z,11.10
2018-04-11T22:48:56.072Z,11.45
2018-04-11T22:51:21.948Z,11.78
2018-04-11T22:53:47.840Z,11.92
2018-04-11T22:56:13.730Z,11.99
2018-04-11T22:58:39.604Z,12.04
2018-04-11T23:01:05.550Z,12.09
2018-04-11T23:03:31.440Z,12.07
2018-04-11T23:05:57.281Z,12.10
2018-04-11T23:08:23.137Z,12.14
2018-04-11T23:10:49.059Z,12.26
2018-04-11T23:13:14.933Z,12.36
2018-04-11T23:15:40.832Z,12.37
2018-04-11T23:18:06.693Z,12.37
2018-04-11T23:20:32.593Z,12.37
2018-04-11T23:22:58.524Z,12.43
2018-04-11T23:25:24.381Z,12.46
2018-04-11T23:27:50.245Z,12.46
2018-04-11T23:30:16.120Z,12.50
2018-04-11T23:32:41.986Z,12.54
2018-04-11T23:35:07.872Z,12.60
2018-04-11T23:37:33.750Z,12.58
2018-04-11T23:39:59.639Z,12.54
2018-04-11T23:42:25.485Z,12.48
2018-04-11T23:44:51.376Z,12.47
2018-04-11T23:47:17.215Z,12.58
2018-04-11T23:49:43.058Z,12.56
2018-04-11T23:52:08.884Z,12.50
2018-04-11T23:54:34.694Z,12.51
2018-04-11T23:57:00.552Z,12.54
2018-04-11T23:59:26.393Z,12.52
